sensor_id;sensor_type;location;lat;lon;timestamp;temperature;humidity
22578;DHT22;11455;52.390;13.028;2023-01-19T00:01:18;3.00;1.00
22578;DHT22;11455;52.390;13.028;2023-01-19T00:03:44;2.90;1.00
22578;DHT22;11455;52.390;13.028;2023-01-19T00:06:10;2.90;1.00
22578;DHT22;11455;52.390;13.028;2023-01-19T00:08:38;2.90;1.00
22578;DHT22;11455;52.390;13.028;2023-01-19T00:11:04;2.80;1.00
22578;DHT22;11455;52.390;13.028;2023-01-19T00:13:39;2.80;1.00
22578;DHT22;11455;52.390;13.028;2023-01-19T00:16:05;2.90;1.00
22578;DHT22;11455;52.390;13.028;2023-01-19T00:18:31;2.90;1.00
22578;DHT22;11455;52.390;13.028;2023-01-19T00:20:57;2.90;1.00
22578;DHT22;11455;52.390;13.028;2023-01-19T00:23:24;2.90;1.00
22578;DHT22;11455;52.390;13.028;2023-01-19T00:25:49;2.90;1.00
22578;DHT22;11455;52.390;13.028;2023-01-19T00:28:16;2.80;1.00
22578;DHT22;11455;52.390;13.028;2023-01-19T00:30:42;2.80;1.00
22578;DHT22;11455;52.390;13.028;2023-01-19T00:33:08;2.80;1.00
22578;DHT22;11455;52.390;13.028;2023-01-19T00:35:34;2.90;1.00
22578;DHT22;11455;52.390;13.028;2023-01-19T00:38:00;2.90;1.00
22578;DHT22;11455;52.390;13.028;2023-01-19T00:40:26;2.90;1.00
22578;DHT22;11455;52.390;13.028;2023-01-19T00:43:00;2.90;1.00
22578;DHT22;11455;52.390;13.028;2023-01-19T00:45:27;3.00;1.00
22578;DHT22;11455;52.390;13.028;2023-01-19T00:47:52;3.00;1.00
22578;DHT22;11455;52.390;13.028;2023-01-19T00:50:25;2.90;1.00
22578;DHT22;11455;52.390;13.028;2023-01-19T00:52:51;2.90;1.00
22578;DHT22;11455;52.390;13.028;2023-01-19T00:55:17;2.90;1.00
22578;DHT22;11455;52.390;13.028;2023-01-19T00:57:43;2.90;1.00
22578;DHT22;11455;52.390;13.028;2023-01-19T01:00:10;2.80;1.00
22578;DHT22;11455;52.390;13.028;2023-01-19T01:02:36;2.80;1.00
22578;DHT22;11455;52.390;13.028;2023-01-19T01:05:02;2.70;1.00
22578;DHT22;11455;52.390;13.028;2023-01-19T01:07:28;2.70;1.00
22578;DHT22;11455;52.390;13.028;2023-01-19T01:09:59;2.70;1.00
22578;DHT22;11455;52.390;13.028;2023-01-19T01:12:25;2.80;1.00
22578;DHT22;11455;52.390;13.028;2023-01-19T01:14:51;2.80;1.00
22578;DHT22;11455;52.390;13.028;2023-01-19T01:17:16;2.70;1.00
22578;DHT22;11455;52.390;13.028;2023-01-19T01:19:43;2.70;1.00
22578;DHT22;11455;52.390;13.028;2023-01-19T01:22:08;2.70;1.00
22578;DHT22;11455;52.390;13.028;2023-01-19T01:24:34;2.60;1.00
22578;DHT22;11455;52.390;13.028;2023-01-19T01:27:00;2.70;1.00
22578;DHT22;11455;52.390;13.028;2023-01-19T01:29:28;2.70;1.00
22578;DHT22;11455;52.390;13.028;2023-01-19T01:31:53;2.70;1.00
22578;DHT22;11455;52.390;13.028;2023-01-19T01:34:19;2.70;1.00
22578;DHT22;11455;52.390;13.028;2023-01-19T01:36:45;2.80;1.00
22578;DHT22;11455;52.390;13.028;2023-01-19T01:39:10;2.70;1.00
22578;DHT22;11455;52.390;13.028;2023-01-19T01:41:36;2.80;1.00
22578;DHT22;11455;52.390;13.028;2023-01-19T01:44:02;2.80;1.00
22578;DHT22;11455;52.390;13.028;2023-01-19T01:46:32;2.90;1.00
22578;DHT22;11455;52.390;13.028;2023-01-19T01:49:05;2.80;1.00
22578;DHT22;11455;52.390;13.028;2023-01-19T01:54:08;2.70;1.00
22578;DHT22;11455;52.390;13.028;2023-01-19T01:56:36;2.70;1.00
22578;DHT22;11455;52.390;13.028;2023-01-19T01:59:04;2.70;1.00
22578;DHT22;11455;52.390;13.028;2023-01-19T02:01:30;2.70;1.00
22578;DHT22;11455;52.390;13.028;2023-01-19T02:04:15;2.70;1.00
22578;DHT22;11455;52.390;13.028;2023-01-19T02:06:43;2.70;1.00
22578;DHT22;11455;52.390;13.028;2023-01-19T02:09:27;2.70;1.00
22578;DHT22;11455;52.390;13.028;2023-01-19T02:12:12;2.60;1.00
22578;DHT22;11455;52.390;13.028;2023-01-19T02:14:57;2.50;1.00
22578;DHT22;11455;52.390;13.028;2023-01-19T02:17:22;2.50;1.00
22578;DHT22;11455;52.390;13.028;2023-01-19T02:19:48;2.50;1.00
22578;DHT22;11455;52.390;13.028;2023-01-19T02:22:30;2.50;1.00
22578;DHT22;11455;52.390;13.028;2023-01-19T02:25:03;2.50;1.00
22578;DHT22;11455;52.390;13.028;2023-01-19T02:27:32;2.50;1.00
22578;DHT22;11455;52.390;13.028;2023-01-19T02:29:58;2.50;1.00
22578;DHT22;11455;52.390;13.028;2023-01-19T02:32:24;2.50;1.00
22578;DHT22;11455;52.390;13.028;2023-01-19T02:34:50;2.50;1.00
22578;DHT22;11455;52.390;13.028;2023-01-19T02:37:16;2.50;1.00
22578;DHT22;11455;52.390;13.028;2023-01-19T02:42:11;2.50;1.00
22578;DHT22;11455;52.390;13.028;2023-01-19T02:44:38;2.50;1.00
22578;DHT22;11455;52.390;13.028;2023-01-19T02:47:04;2.60;1.00
22578;DHT22;11455;52.390;13.028;2023-01-19T02:49:30;2.60;1.00
22578;DHT22;11455;52.390;13.028;2023-01-19T02:51:56;2.50;1.00
22578;DHT22;11455;52.390;13.028;2023-01-19T03:10:07;2.50;1.00
22578;DHT22;11455;52.390;13.028;2023-01-19T03:15:30;2.50;1.00
22578;DHT22;11455;52.390;13.028;2023-01-19T03:17:57;2.50;1.00
22578;DHT22;11455;52.390;13.028;2023-01-19T03:20:24;2.30;1.00
22578;DHT22;11455;52.390;13.028;2023-01-19T03:22:58;2.20;1.00
22578;DHT22;11455;52.390;13.028;2023-01-19T03:25:24;2.20;1.00
22578;DHT22;11455;52.390;13.028;2023-01-19T03:27:52;2.10;1.00
22578;DHT22;11455;52.390;13.028;2023-01-19T03:30:21;2.10;9.70
22578;DHT22;11455;52.390;13.028;2023-01-19T03:32:49;2.10;15.30
22578;DHT22;11455;52.390;13.028;2023-01-19T03:35:15;2.10;11.40
22578;DHT22;11455;52.390;13.028;2023-01-19T03:37:46;2.10;7.30
22578;DHT22;11455;52.390;13.028;2023-01-19T03:40:12;1.90;31.00
22578;DHT22;11455;52.390;13.028;2023-01-19T03:42:38;1.90;47.50
22578;DHT22;11455;52.390;13.028;2023-01-19T03:45:05;1.90;30.00
22578;DHT22;11455;52.390;13.028;2023-01-19T03:47:31;1.90;29.30
22578;DHT22;11455;52.390;13.028;2023-01-19T03:50:00;1.80;41.70
22578;DHT22;11455;52.390;13.028;2023-01-19T03:52:29;1.70;53.20
22578;DHT22;11455;52.390;13.028;2023-01-19T03:55:01;1.60;91.90
22578;DHT22;11455;52.390;13.028;2023-01-19T03:57:28;1.60;75.90
22578;DHT22;11455;52.390;13.028;2023-01-19T03:59:54;1.70;76.10
22578;DHT22;11455;52.390;13.028;2023-01-19T04:02:21;1.80;65.90
22578;DHT22;11455;52.390;13.028;2023-01-19T04:04:47;1.80;25.30
22578;DHT22;11455;52.390;13.028;2023-01-19T04:07:13;1.80;46.70
22578;DHT22;11455;52.390;13.028;2023-01-19T04:09:38;1.90;19.80
22578;DHT22;11455;52.390;13.028;2023-01-19T04:12:04;1.90;26.80
22578;DHT22;11455;52.390;13.028;2023-01-19T04:14:30;1.90;27.70
22578;DHT22;11455;52.390;13.028;2023-01-19T04:16:56;2.00;24.70
22578;DHT22;11455;52.390;13.028;2023-01-19T04:19:21;1.90;18.40
22578;DHT22;11455;52.390;13.028;2023-01-19T04:21:48;1.90;26.00
22578;DHT22;11455;52.390;13.028;2023-01-19T04:24:16;1.90;20.30
22578;DHT22;11455;52.390;13.028;2023-01-19T04:26:42;2.00;16.30
22578;DHT22;11455;52.390;13.028;2023-01-19T04:29:08;2.00;4.00
22578;DHT22;11455;52.390;13.028;2023-01-19T04:31:34;2.00;1.00
22578;DHT22;11455;52.390;13.028;2023-01-19T04:34:01;1.90;1.00
22578;DHT22;11455;52.390;13.028;2023-01-19T04:36:27;1.90;1.00
22578;DHT22;11455;52.390;13.028;2023-01-19T04:38:53;1.90;1.90
22578;DHT22;11455;52.390;13.028;2023-01-19T04:41:19;1.80;1.00
22578;DHT22;11455;52.390;13.028;2023-01-19T04:43:44;1.60;12.50
22578;DHT22;11455;52.390;13.028;2023-01-19T04:46:12;1.50;19.00
22578;DHT22;11455;52.390;13.028;2023-01-19T04:48:38;1.60;27.30
22578;DHT22;11455;52.390;13.028;2023-01-19T04:51:04;1.60;26.60
22578;DHT22;11455;52.390;13.028;2023-01-19T04:53:32;1.60;20.30
22578;DHT22;11455;52.390;13.028;2023-01-19T04:56:00;1.70;15.60
22578;DHT22;11455;52.390;13.028;2023-01-19T04:58:26;1.70;10.30
22578;DHT22;11455;52.390;13.028;2023-01-19T05:00:51;1.60;1.00
22578;DHT22;11455;52.390;13.028;2023-01-19T05:03:17;1.50;1.00
22578;DHT22;11455;52.390;13.028;2023-01-19T05:05:43;1.50;11.70
22578;DHT22;11455;52.390;13.028;2023-01-19T05:08:09;1.50;17.80
22578;DHT22;11455;52.390;13.028;2023-01-19T05:10:35;1.50;11.30
22578;DHT22;11455;52.390;13.028;2023-01-19T05:13:01;1.40;9.60
22578;DHT22;11455;52.390;13.028;2023-01-19T05:15:26;1.40;14.70
22578;DHT22;11455;52.390;13.028;2023-01-19T05:17:52;1.30;37.20
22578;DHT22;11455;52.390;13.028;2023-01-19T05:20:17;1.30;28.00
22578;DHT22;11455;52.390;13.028;2023-01-19T05:22:50;1.30;25.40
22578;DHT22;11455;52.390;13.028;2023-01-19T05:25:16;1.20;18.30
22578;DHT22;11455;52.390;13.028;2023-01-19T05:27:42;1.00;39.60
22578;DHT22;11455;52.390;13.028;2023-01-19T05:30:08;0.90;73.70
22578;DHT22;11455;52.390;13.028;2023-01-19T05:32:33;0.90;90.80
22578;DHT22;11455;52.390;13.028;2023-01-19T05:34:59;0.90;90.60
22578;DHT22;11455;52.390;13.028;2023-01-19T05:37:27;1.00;91.10
22578;DHT22;11455;52.390;13.028;2023-01-19T05:39:55;1.20;73.70
22578;DHT22;11455;52.390;13.028;2023-01-19T05:42:20;1.20;76.60
22578;DHT22;11455;52.390;13.028;2023-01-19T05:44:46;1.30;57.60
22578;DHT22;11455;52.390;13.028;2023-01-19T05:47:12;1.30;56.50
22578;DHT22;11455;52.390;13.028;2023-01-19T05:49:40;1.30;59.20
22578;DHT22;11455;52.390;13.028;2023-01-19T05:52:05;1.40;50.90
22578;DHT22;11455;52.390;13.028;2023-01-19T05:54:31;1.50;41.00
22578;DHT22;11455;52.390;13.028;2023-01-19T05:57:06;1.50;40.30
22578;DHT22;11455;52.390;13.028;2023-01-19T05:59:32;1.50;47.20
22578;DHT22;11455;52.390;13.028;2023-01-19T06:01:58;1.50;34.30
22578;DHT22;11455;52.390;13.028;2023-01-19T06:04:24;1.60;44.10
22578;DHT22;11455;52.390;13.028;2023-01-19T06:06:50;1.60;31.70
22578;DHT22;11455;52.390;13.028;2023-01-19T06:09:16;1.70;9.70
22578;DHT22;11455;52.390;13.028;2023-01-19T06:11:42;1.70;13.80
22578;DHT22;11455;52.390;13.028;2023-01-19T06:14:08;1.70;15.70
22578;DHT22;11455;52.390;13.028;2023-01-19T06:16:34;1.70;13.70
22578;DHT22;11455;52.390;13.028;2023-01-19T06:19:00;1.70;6.10
22578;DHT22;11455;52.390;13.028;2023-01-19T06:21:25;1.80;1.00
22578;DHT22;11455;52.390;13.028;2023-01-19T06:23:51;1.70;1.00
22578;DHT22;11455;52.390;13.028;2023-01-19T06:26:16;1.70;1.00
22578;DHT22;11455;52.390;13.028;2023-01-19T06:28:42;1.70;1.00
22578;DHT22;11455;52.390;13.028;2023-01-19T06:31:08;1.70;1.00
22578;DHT22;11455;52.390;13.028;2023-01-19T06:33:33;1.70;1.00
22578;DHT22;11455;52.390;13.028;2023-01-19T06:35:59;1.70;1.00
22578;DHT22;11455;52.390;13.028;2023-01-19T06:38:25;1.70;1.00
22578;DHT22;11455;52.390;13.028;2023-01-19T06:40:54;1.70;1.00
22578;DHT22;11455;52.390;13.028;2023-01-19T06:43:22;1.60;1.00
22578;DHT22;11455;52.390;13.028;2023-01-19T06:45:51;1.60;1.00
22578;DHT22;11455;52.390;13.028;2023-01-19T06:48:17;1.50;1.00
22578;DHT22;11455;52.390;13.028;2023-01-19T06:50:46;1.50;1.00
22578;DHT22;11455;52.390;13.028;2023-01-19T06:53:14;1.50;1.00
22578;DHT22;11455;52.390;13.028;2023-01-19T06:55:43;1.50;1.00
22578;DHT22;11455;52.390;13.028;2023-01-19T06:58:09;1.50;7.20
22578;DHT22;11455;52.390;13.028;2023-01-19T07:00:35;1.50;1.00
22578;DHT22;11455;52.390;13.028;2023-01-19T07:03:03;1.50;5.40
22578;DHT22;11455;52.390;13.028;2023-01-19T07:05:30;1.40;7.80
22578;DHT22;11455;52.390;13.028;2023-01-19T07:07:56;1.40;23.60
22578;DHT22;11455;52.390;13.028;2023-01-19T07:10:22;1.50;13.80
22578;DHT22;11455;52.390;13.028;2023-01-19T07:12:48;1.60;5.00
22578;DHT22;11455;52.390;13.028;2023-01-19T07:15:14;1.60;1.00
22578;DHT22;11455;52.390;13.028;2023-01-19T07:17:40;1.50;1.20
22578;DHT22;11455;52.390;13.028;2023-01-19T07:20:09;1.60;1.00
22578;DHT22;11455;52.390;13.028;2023-01-19T07:22:39;1.60;1.00
22578;DHT22;11455;52.390;13.028;2023-01-19T07:25:05;1.50;1.00
22578;DHT22;11455;52.390;13.028;2023-01-19T07:27:31;1.30;1.10
22578;DHT22;11455;52.390;13.028;2023-01-19T07:29:57;1.30;6.80
22578;DHT22;11455;52.390;13.028;2023-01-19T07:32:25;1.30;8.40
22578;DHT22;11455;52.390;13.028;2023-01-19T07:34:51;1.40;10.90
22578;DHT22;11455;52.390;13.028;2023-01-19T07:37:17;1.40;4.60
22578;DHT22;11455;52.390;13.028;2023-01-19T07:39:43;1.40;1.00
22578;DHT22;11455;52.390;13.028;2023-01-19T07:42:08;1.40;11.90
22578;DHT22;11455;52.390;13.028;2023-01-19T07:44:35;1.30;10.70
22578;DHT22;11455;52.390;13.028;2023-01-19T07:47:01;1.30;26.30
22578;DHT22;11455;52.390;13.028;2023-01-19T07:49:32;1.50;11.90
22578;DHT22;11455;52.390;13.028;2023-01-19T07:51:58;1.50;1.00
22578;DHT22;11455;52.390;13.028;2023-01-19T07:54:23;1.50;1.00
22578;DHT22;11455;52.390;13.028;2023-01-19T07:56:51;1.50;1.00
22578;DHT22;11455;52.390;13.028;2023-01-19T07:59:17;1.40;1.00
22578;DHT22;11455;52.390;13.028;2023-01-19T08:01:43;1.40;1.00
22578;DHT22;11455;52.390;13.028;2023-01-19T08:04:08;1.50;1.00
22578;DHT22;11455;52.390;13.028;2023-01-19T08:06:36;1.50;1.00
22578;DHT22;11455;52.390;13.028;2023-01-19T08:09:02;1.60;1.00
22578;DHT22;11455;52.390;13.028;2023-01-19T08:11:30;1.60;1.00
22578;DHT22;11455;52.390;13.028;2023-01-19T08:13:56;1.60;1.00
22578;DHT22;11455;52.390;13.028;2023-01-19T08:16:21;1.70;1.00
22578;DHT22;11455;52.390;13.028;2023-01-19T08:18:47;1.70;1.00
22578;DHT22;11455;52.390;13.028;2023-01-19T08:21:15;1.50;1.00
22578;DHT22;11455;52.390;13.028;2023-01-19T08:23:41;1.40;1.00
22578;DHT22;11455;52.390;13.028;2023-01-19T08:26:16;1.40;1.00
22578;DHT22;11455;52.390;13.028;2023-01-19T08:28:42;1.30;1.00
22578;DHT22;11455;52.390;13.028;2023-01-19T08:31:10;1.30;1.00
22578;DHT22;11455;52.390;13.028;2023-01-19T08:33:36;1.40;1.00
22578;DHT22;11455;52.390;13.028;2023-01-19T08:36:02;1.50;1.00
22578;DHT22;11455;52.390;13.028;2023-01-19T08:38:27;1.40;1.00
22578;DHT22;11455;52.390;13.028;2023-01-19T08:40:53;1.50;1.00
22578;DHT22;11455;52.390;13.028;2023-01-19T08:43:19;1.60;1.00
22578;DHT22;11455;52.390;13.028;2023-01-19T08:45:45;1.40;1.00
22578;DHT22;11455;52.390;13.028;2023-01-19T08:48:15;1.50;1.00
22578;DHT22;11455;52.390;13.028;2023-01-19T08:50:40;1.40;7.80
22578;DHT22;11455;52.390;13.028;2023-01-19T08:53:09;1.40;3.80
22578;DHT22;11455;52.390;13.028;2023-01-19T08:55:35;1.50;1.00
22578;DHT22;11455;52.390;13.028;2023-01-19T08:58:01;1.50;1.00
22578;DHT22;11455;52.390;13.028;2023-01-19T09:00:30;1.50;1.00
22578;DHT22;11455;52.390;13.028;2023-01-19T09:02:58;1.60;1.00
22578;DHT22;11455;52.390;13.028;2023-01-19T09:05:24;1.60;1.00
22578;DHT22;11455;52.390;13.028;2023-01-19T09:07:50;1.60;1.00
22578;DHT22;11455;52.390;13.028;2023-01-19T09:10:16;1.60;1.00
22578;DHT22;11455;52.390;13.028;2023-01-19T09:12:42;1.50;1.50
22578;DHT22;11455;52.390;13.028;2023-01-19T09:15:11;1.40;18.30
22578;DHT22;11455;52.390;13.028;2023-01-19T09:17:39;1.50;26.80
22578;DHT22;11455;52.390;13.028;2023-01-19T09:20:06;1.60;26.10
22578;DHT22;11455;52.390;13.028;2023-01-19T09:22:32;1.60;13.50
22578;DHT22;11455;52.390;13.028;2023-01-19T09:24:57;1.50;3.20
22578;DHT22;11455;52.390;13.028;2023-01-19T09:27:24;1.60;15.70
22578;DHT22;11455;52.390;13.028;2023-01-19T09:29:50;1.60;20.30
22578;DHT22;11455;52.390;13.028;2023-01-19T09:32:19;1.50;25.50
22578;DHT22;11455;52.390;13.028;2023-01-19T09:34:45;1.50;24.30
22578;DHT22;11455;52.390;13.028;2023-01-19T09:37:11;1.60;32.90
22578;DHT22;11455;52.390;13.028;2023-01-19T09:39:37;1.80;18.20
22578;DHT22;11455;52.390;13.028;2023-01-19T09:42:22;1.80;16.80
22578;DHT22;11455;52.390;13.028;2023-01-19T09:44:51;1.80;20.80
22578;DHT22;11455;52.390;13.028;2023-01-19T09:47:25;1.80;16.70
22578;DHT22;11455;52.390;13.028;2023-01-19T09:49:57;1.70;12.70
22578;DHT22;11455;52.390;13.028;2023-01-19T09:52:23;1.90;17.60
22578;DHT22;11455;52.390;13.028;2023-01-19T09:57:18;2.00;5.90
22578;DHT22;11455;52.390;13.028;2023-01-19T09:59:47;1.90;10.00
22578;DHT22;11455;52.390;13.028;2023-01-19T10:05:19;1.90;23.10
22578;DHT22;11455;52.390;13.028;2023-01-19T10:08:33;1.90;36.70
22578;DHT22;11455;52.390;13.028;2023-01-19T10:10:35;2.00;24.50
22578;DHT22;11455;52.390;13.028;2023-01-19T10:20:42;2.20;15.90
22578;DHT22;11455;52.390;13.028;2023-01-19T10:25:48;2.40;13.10
22578;DHT22;11455;52.390;13.028;2023-01-19T10:28:14;2.40;8.40
22578;DHT22;11455;52.390;13.028;2023-01-19T10:30:41;2.40;11.40
22578;DHT22;11455;52.390;13.028;2023-01-19T10:33:10;2.30;11.00
22578;DHT22;11455;52.390;13.028;2023-01-19T10:35:36;2.30;22.80
22578;DHT22;11455;52.390;13.028;2023-01-19T10:38:01;2.50;24.80
22578;DHT22;11455;52.390;13.028;2023-01-19T10:40:29;2.50;17.50
22578;DHT22;11455;52.390;13.028;2023-01-19T10:42:57;2.50;22.20
22578;DHT22;11455;52.390;13.028;2023-01-19T10:45:27;2.70;23.30
22578;DHT22;11455;52.390;13.028;2023-01-19T10:47:56;2.70;22.20
22578;DHT22;11455;52.390;13.028;2023-01-19T10:50:28;2.80;16.50
22578;DHT22;11455;52.390;13.028;2023-01-19T10:52:55;2.90;1.00
22578;DHT22;11455;52.390;13.028;2023-01-19T10:57:50;3.00;1.00
22578;DHT22;11455;52.390;13.028;2023-01-19T11:00:39;3.00;1.00
22578;DHT22;11455;52.390;13.028;2023-01-19T11:03:04;3.10;1.00
22578;DHT22;11455;52.390;13.028;2023-01-19T11:05:31;3.10;1.00
22578;DHT22;11455;52.390;13.028;2023-01-19T11:07:57;3.20;1.00
22578;DHT22;11455;52.390;13.028;2023-01-19T11:10:24;3.20;1.00
22578;DHT22;11455;52.390;13.028;2023-01-19T11:13:00;3.20;1.00
22578;DHT22;11455;52.390;13.028;2023-01-19T11:17:52;3.30;1.00
22578;DHT22;11455;52.390;13.028;2023-01-19T11:20:22;3.30;1.00
22578;DHT22;11455;52.390;13.028;2023-01-19T11:22:51;3.30;1.00
22578;DHT22;11455;52.390;13.028;2023-01-19T11:25:28;3.40;1.00
22578;DHT22;11455;52.390;13.028;2023-01-19T11:27:55;3.40;1.00
22578;DHT22;11455;52.390;13.028;2023-01-19T11:30:21;3.50;1.00
22578;DHT22;11455;52.390;13.028;2023-01-19T11:32:48;3.60;1.00
22578;DHT22;11455;52.390;13.028;2023-01-19T11:38:04;4.00;1.00
22578;DHT22;11455;52.390;13.028;2023-01-19T11:40:30;4.00;1.00
22578;DHT22;11455;52.390;13.028;2023-01-19T11:42:56;4.00;1.00
22578;DHT22;11455;52.390;13.028;2023-01-19T11:45:22;4.10;1.00
22578;DHT22;11455;52.390;13.028;2023-01-19T11:47:50;4.00;1.00
22578;DHT22;11455;52.390;13.028;2023-01-19T11:57:44;4.40;1.00
22578;DHT22;11455;52.390;13.028;2023-01-19T12:05:37;4.30;1.00
22578;DHT22;11455;52.390;13.028;2023-01-19T12:08:05;4.40;1.00
22578;DHT22;11455;52.390;13.028;2023-01-19T12:10:39;4.50;1.00
22578;DHT22;11455;52.390;13.028;2023-01-19T12:13:09;4.50;1.00
22578;DHT22;11455;52.390;13.028;2023-01-19T12:18:02;4.70;1.00
22578;DHT22;11455;52.390;13.028;2023-01-19T12:28:29;4.90;1.00
22578;DHT22;11455;52.390;13.028;2023-01-19T12:30:55;5.00;1.00
22578;DHT22;11455;52.390;13.028;2023-01-19T12:35:57;5.10;1.00
22578;DHT22;11455;52.390;13.028;2023-01-19T12:38:34;5.20;1.00
22578;DHT22;11455;52.390;13.028;2023-01-19T12:41:14;5.10;1.00
22578;DHT22;11455;52.390;13.028;2023-01-19T12:43:40;5.20;1.00
22578;DHT22;11455;52.390;13.028;2023-01-19T12:46:27;5.20;1.00
22578;DHT22;11455;52.390;13.028;2023-01-19T12:48:51;5.30;1.00
22578;DHT22;11455;52.390;13.028;2023-01-19T12:51:21;5.40;1.00
22578;DHT22;11455;52.390;13.028;2023-01-19T12:53:54;5.40;1.00
22578;DHT22;11455;52.390;13.028;2023-01-19T12:56:31;5.50;1.00
22578;DHT22;11455;52.390;13.028;2023-01-19T12:58:58;5.50;1.00
22578;DHT22;11455;52.390;13.028;2023-01-19T13:01:23;5.60;1.00
22578;DHT22;11455;52.390;13.028;2023-01-19T13:04:04;5.60;1.00
22578;DHT22;11455;52.390;13.028;2023-01-19T13:09:31;5.60;1.00
22578;DHT22;11455;52.390;13.028;2023-01-19T13:12:10;5.60;1.00
22578;DHT22;11455;52.390;13.028;2023-01-19T13:14:36;5.40;1.00
22578;DHT22;11455;52.390;13.028;2023-01-19T13:17:03;5.50;1.00
22578;DHT22;11455;52.390;13.028;2023-01-19T13:19:31;5.60;1.00
22578;DHT22;11455;52.390;13.028;2023-01-19T13:27:30;5.80;1.00
22578;DHT22;11455;52.390;13.028;2023-01-19T13:29:58;5.80;1.00
22578;DHT22;11455;52.390;13.028;2023-01-19T13:32:25;5.70;1.00
22578;DHT22;11455;52.390;13.028;2023-01-19T13:34:52;5.50;1.00
22578;DHT22;11455;52.390;13.028;2023-01-19T13:37:19;5.50;1.00
22578;DHT22;11455;52.390;13.028;2023-01-19T13:39:47;5.40;1.00
22578;DHT22;11455;52.390;13.028;2023-01-19T13:42:36;5.30;1.00
22578;DHT22;11455;52.390;13.028;2023-01-19T13:45:10;5.20;1.00
22578;DHT22;11455;52.390;13.028;2023-01-19T13:47:44;5.10;1.00
22578;DHT22;11455;52.390;13.028;2023-01-19T13:52:45;4.90;1.00
22578;DHT22;11455;52.390;13.028;2023-01-19T13:55:13;4.90;1.00
22578;DHT22;11455;52.390;13.028;2023-01-19T13:57:40;4.80;1.00
22578;DHT22;11455;52.390;13.028;2023-01-19T14:00:15;4.80;1.00
22578;DHT22;11455;52.390;13.028;2023-01-19T14:10:40;4.90;1.00
22578;DHT22;11455;52.390;13.028;2023-01-19T14:13:14;4.90;1.00
22578;DHT22;11455;52.390;13.028;2023-01-19T14:15:40;5.00;1.00
22578;DHT22;11455;52.390;13.028;2023-01-19T14:20:50;5.00;1.00
22578;DHT22;11455;52.390;13.028;2023-01-19T14:26:00;5.00;1.00
22578;DHT22;11455;52.390;13.028;2023-01-19T14:31:21;4.80;1.00
22578;DHT22;11455;52.390;13.028;2023-01-19T14:33:49;4.80;1.00
22578;DHT22;11455;52.390;13.028;2023-01-19T14:38:44;4.90;1.00
22578;DHT22;11455;52.390;13.028;2023-01-19T14:41:10;4.90;1.00
22578;DHT22;11455;52.390;13.028;2023-01-19T14:43:41;4.90;1.00
22578;DHT22;11455;52.390;13.028;2023-01-19T14:46:07;5.00;1.00
22578;DHT22;11455;52.390;13.028;2023-01-19T14:48:39;5.00;1.00
22578;DHT22;11455;52.390;13.028;2023-01-19T14:51:11;5.10;1.00
22578;DHT22;11455;52.390;13.028;2023-01-19T14:53:40;5.10;1.00
22578;DHT22;11455;52.390;13.028;2023-01-19T14:56:10;5.10;1.00
22578;DHT22;11455;52.390;13.028;2023-01-19T14:58:36;5.10;1.00
22578;DHT22;11455;52.390;13.028;2023-01-19T15:01:02;5.10;1.00
22578;DHT22;11455;52.390;13.028;2023-01-19T15:03:28;5.10;1.00
22578;DHT22;11455;52.390;13.028;2023-01-19T15:05:56;5.00;1.00
22578;DHT22;11455;52.390;13.028;2023-01-19T15:08:28;4.90;1.00
22578;DHT22;11455;52.390;13.028;2023-01-19T15:10:54;4.80;1.00
22578;DHT22;11455;52.390;13.028;2023-01-19T15:13:21;4.90;1.00
22578;DHT22;11455;52.390;13.028;2023-01-19T15:15:47;4.90;1.00
22578;DHT22;11455;52.390;13.028;2023-01-19T15:18:18;4.90;1.00
22578;DHT22;11455;52.390;13.028;2023-01-19T15:20:45;5.00;1.00
22578;DHT22;11455;52.390;13.028;2023-01-19T15:23:11;5.00;1.00
22578;DHT22;11455;52.390;13.028;2023-01-19T15:25:36;5.00;1.00
22578;DHT22;11455;52.390;13.028;2023-01-19T15:28:10;5.00;1.00
22578;DHT22;11455;52.390;13.028;2023-01-19T15:30:38;5.10;1.00
22578;DHT22;11455;52.390;13.028;2023-01-19T15:33:04;5.10;1.00
22578;DHT22;11455;52.390;13.028;2023-01-19T15:35:30;5.10;1.00
22578;DHT22;11455;52.390;13.028;2023-01-19T15:37:56;5.10;1.00
22578;DHT22;11455;52.390;13.028;2023-01-19T15:40:21;5.00;1.00
22578;DHT22;11455;52.390;13.028;2023-01-19T15:42:47;5.10;1.00
22578;DHT22;11455;52.390;13.028;2023-01-19T15:47:59;5.10;1.00
22578;DHT22;11455;52.390;13.028;2023-01-19T15:50:25;5.10;1.00
22578;DHT22;11455;52.390;13.028;2023-01-19T15:52:51;5.00;1.00
22578;DHT22;11455;52.390;13.028;2023-01-19T15:55:17;5.00;1.00
22578;DHT22;11455;52.390;13.028;2023-01-19T15:57:42;5.00;1.00
22578;DHT22;11455;52.390;13.028;2023-01-19T16:00:08;4.90;1.00
22578;DHT22;11455;52.390;13.028;2023-01-19T16:02:37;4.90;1.00
22578;DHT22;11455;52.390;13.028;2023-01-19T16:05:03;4.90;1.00
22578;DHT22;11455;52.390;13.028;2023-01-19T16:07:29;4.80;1.00
22578;DHT22;11455;52.390;13.028;2023-01-19T16:09:54;4.70;1.00
22578;DHT22;11455;52.390;13.028;2023-01-19T16:12:20;4.60;1.00
22578;DHT22;11455;52.390;13.028;2023-01-19T16:14:46;4.40;1.00
22578;DHT22;11455;52.390;13.028;2023-01-19T16:17:11;4.30;1.00
22578;DHT22;11455;52.390;13.028;2023-01-19T16:19:37;4.30;1.00
22578;DHT22;11455;52.390;13.028;2023-01-19T16:22:05;4.20;1.00
22578;DHT22;11455;52.390;13.028;2023-01-19T16:24:31;4.30;1.00
22578;DHT22;11455;52.390;13.028;2023-01-19T16:26:56;4.40;1.00
22578;DHT22;11455;52.390;13.028;2023-01-19T16:29:24;4.40;1.00
22578;DHT22;11455;52.390;13.028;2023-01-19T16:31:53;4.50;1.00
22578;DHT22;11455;52.390;13.028;2023-01-19T16:34:18;4.50;1.00
22578;DHT22;11455;52.390;13.028;2023-01-19T16:36:44;4.40;1.00
22578;DHT22;11455;52.390;13.028;2023-01-19T16:39:11;4.40;1.00
22578;DHT22;11455;52.390;13.028;2023-01-19T16:41:37;4.50;1.00
22578;DHT22;11455;52.390;13.028;2023-01-19T16:44:03;4.60;1.00
22578;DHT22;11455;52.390;13.028;2023-01-19T16:46:30;4.50;1.00
22578;DHT22;11455;52.390;13.028;2023-01-19T16:48:58;4.60;1.00
22578;DHT22;11455;52.390;13.028;2023-01-19T16:51:24;4.60;1.00
22578;DHT22;11455;52.390;13.028;2023-01-19T16:53:52;4.50;1.00
22578;DHT22;11455;52.390;13.028;2023-01-19T16:56:18;4.40;1.00
22578;DHT22;11455;52.390;13.028;2023-01-19T16:58:46;4.50;1.00
22578;DHT22;11455;52.390;13.028;2023-01-19T17:01:16;4.50;1.00
22578;DHT22;11455;52.390;13.028;2023-01-19T17:03:42;4.50;1.00
22578;DHT22;11455;52.390;13.028;2023-01-19T17:06:09;4.40;1.00
22578;DHT22;11455;52.390;13.028;2023-01-19T17:08:35;4.40;1.00
22578;DHT22;11455;52.390;13.028;2023-01-19T17:11:06;4.30;1.00
22578;DHT22;11455;52.390;13.028;2023-01-19T17:13:32;4.30;1.00
22578;DHT22;11455;52.390;13.028;2023-01-19T17:16:01;4.40;1.00
22578;DHT22;11455;52.390;13.028;2023-01-19T17:18:27;4.40;1.00
22578;DHT22;11455;52.390;13.028;2023-01-19T17:20:53;4.50;1.00
22578;DHT22;11455;52.390;13.028;2023-01-19T17:23:19;4.50;1.00
22578;DHT22;11455;52.390;13.028;2023-01-19T17:25:52;4.60;1.00
22578;DHT22;11455;52.390;13.028;2023-01-19T17:28:17;4.60;1.00
22578;DHT22;11455;52.390;13.028;2023-01-19T17:30:43;4.50;1.00